Time;durP1;ratioP1;P1;durP2;ratioP2;P2;SDS_P1;SDS_P2;PMS_P1;PMS_P2;Temp;Humidity;BMP_temperature;BMP_pressure;BME280_temperature;BME280_humidity;BME280_pressure;Samples;Min_cycle;Max_cycle;Signal;HPM_P1;HPM_P2
2022/05/11 01:19:38;;;;;;;4.22;1.00;;;25.10;53.50;;;;;;5106720;27;20448;-36
2022/05/11 01:22:23;;;;;;;1.55;0.90;;;25.10;54.00;;;;;;5101841;28;20036;-36
2022/05/11 01:24:50;;;;;;;1.67;1.00;;;25.10;54.00;;;;;;5100189;28;20127;-36
2022/05/11 01:27:29;;;;;;;2.35;1.23;;;25.10;54.10;;;;;;5105198;28;20021;-34
2022/05/11 01:29:57;;;;;;;4.40;1.00;;;25.20;54.30;;;;;;5102390;28;20564;-35
2022/05/11 01:32:24;;;;;;;4.38;0.93;;;25.20;54.40;;;;;;5111882;28;20054;-35
2022/05/11 01:34:52;;;;;;;3.92;0.93;;;25.20;54.40;;;;;;5106136;28;20137;-34
2022/05/11 01:37:18;;;;;;;1.63;1.10;;;25.20;54.50;;;;;;5098974;28;20017;-36
2022/05/11 01:39:45;;;;;;;2.63;1.00;;;25.20;54.60;;;;;;5102234;28;20082;-36
2022/05/11 01:42:12;;;;;;;1.58;0.85;;;25.20;54.60;;;;;;5102035;28;20024;-35
2022/05/11 01:44:38;;;;;;;1.92;1.00;;;25.30;54.80;;;;;;5099063;28;20131;-34
2022/05/11 01:47:04;;;;;;;1.73;0.98;;;25.30;54.70;;;;;;5102132;28;20066;-37
2022/05/11 01:49:31;;;;;;;2.83;0.80;;;25.30;54.70;;;;;;5105723;28;20537;-34
2022/05/11 01:51:57;;;;;;;2.92;1.05;;;25.30;54.70;;;;;;5105099;28;20021;-36
2022/05/11 01:54:24;;;;;;;1.92;1.00;;;25.30;54.70;;;;;;5103787;28;20028;-34
2022/05/11 01:56:50;;;;;;;1.43;1.00;;;25.40;54.80;;;;;;5103188;28;20024;-35
2022/05/11 01:59:16;;;;;;;6.22;1.23;;;25.40;54.70;;;;;;5101548;28;20047;-37
2022/05/11 02:01:42;;;;;;;3.53;1.23;;;25.40;54.90;;;;;;5104534;28;20032;-36
2022/05/11 02:09:41;;;;;;;2.53;1.20;;;25.40;54.60;;;;;;5095856;28;20034;-34
2022/05/11 02:12:09;;;;;;;2.72;1.08;;;25.40;54.50;;;;;;5105132;28;20025;-35
2022/05/11 02:14:36;;;;;;;5.03;1.05;;;25.40;54.40;;;;;;5102535;28;20023;-33
2022/05/11 02:17:02;;;;;;;4.32;1.20;;;25.40;54.30;;;;;;5103174;28;20034;-35
2022/05/11 02:19:29;;;;;;;1.38;1.00;;;25.40;54.30;;;;;;5103522;28;20056;-34
2022/05/11 02:21:55;;;;;;;2.75;1.13;;;25.40;54.20;;;;;;5101107;28;20060;-34
2022/05/11 02:24:21;;;;;;;1.10;0.88;;;25.40;54.20;;;;;;5098883;28;20044;-34
2022/05/11 02:26:47;;;;;;;3.30;1.10;;;25.40;54.10;;;;;;5099094;28;20023;-34
2022/05/11 02:29:14;;;;;;;3.13;1.20;;;25.40;54.10;;;;;;5099933;28;20035;-39
2022/05/11 02:31:40;;;;;;;1.60;1.48;;;25.40;54.10;;;;;;5088160;28;20025;-38
2022/05/11 02:34:06;;;;;;;2.55;1.23;;;25.40;54.00;;;;;;5080481;28;20032;-35
2022/05/11 02:36:34;;;;;;;3.70;1.00;;;25.40;53.80;;;;;;5086562;28;20439;-34
2022/05/11 02:39:01;;;;;;;5.05;1.10;;;25.30;53.40;;;;;;5089442;28;20055;-34
2022/05/11 02:41:27;;;;;;;1.90;1.10;;;25.30;53.10;;;;;;5087938;28;20025;-34
2022/05/11 02:43:53;;;;;;;2.95;1.05;;;25.30;52.70;;;;;;5092936;28;20048;-34
2022/05/11 02:46:20;;;;;;;1.77;1.20;;;25.30;52.20;;;;;;5091844;28;20021;-34
2022/05/11 02:48:47;;;;;;;2.38;1.00;;;25.20;51.80;;;;;;5088361;28;20025;-34
2022/05/11 02:51:13;;;;;;;1.83;1.20;;;25.20;52.10;;;;;;5086135;28;20024;-43
2022/05/11 02:53:39;;;;;;;1.58;1.02;;;25.20;52.30;;;;;;5089758;28;20123;-43
2022/05/11 02:56:05;;;;;;;2.05;0.90;;;25.20;52.30;;;;;;5090319;28;20025;-43
2022/05/11 02:58:32;;;;;;;1.88;1.10;;;25.10;52.30;;;;;;5085896;28;20044;-43
2022/05/11 03:00:59;;;;;;;1.80;1.05;;;25.10;52.30;;;;;;5089631;28;20028;-42
2022/05/11 03:03:25;;;;;;;2.25;1.05;;;25.10;52.30;;;;;;5092022;28;20036;-43
2022/05/11 03:05:52;;;;;;;4.13;1.07;;;25.10;52.40;;;;;;5085600;28;20401;-43
2022/05/11 03:08:20;;;;;;;2.30;0.98;;;25.00;52.90;;;;;;5085074;28;20056;-43
2022/05/11 03:10:48;;;;;;;1.63;1.10;;;25.00;52.30;;;;;;5080748;28;20035;-42
2022/05/11 03:13:14;;;;;;;2.20;0.88;;;25.00;52.40;;;;;;5088189;28;20078;-43
2022/05/11 03:15:41;;;;;;;3.10;1.20;;;25.00;52.50;;;;;;5086946;28;20118;-43
2022/05/11 03:18:07;;;;;;;1.40;1.10;;;25.00;52.50;;;;;;5085548;28;20045;-42
2022/05/11 03:20:34;;;;;;;1.73;1.15;;;25.00;52.60;;;;;;5084872;28;20035;-43
2022/05/11 03:23:01;;;;;;;1.83;1.00;;;25.00;52.70;;;;;;5083491;28;20033;-43
2022/05/11 03:25:27;;;;;;;1.30;0.90;;;25.00;52.80;;;;;;5087795;28;20032;-43
2022/05/11 03:27:53;;;;;;;1.75;1.10;;;24.90;52.90;;;;;;5083747;28;20674;-43
2022/05/11 03:30:20;;;;;;;1.40;0.70;;;24.90;52.90;;;;;;5087181;28;20020;-43
2022/05/11 03:35:30;;;;;;;2.45;1.20;;;24.90;53.00;;;;;;5086450;28;20023;-43
2022/05/11 03:37:57;;;;;;;5.00;1.10;;;24.90;53.00;;;;;;5082667;28;20028;-41
2022/05/11 03:40:23;;;;;;;1.77;1.00;;;24.80;53.10;;;;;;5081747;28;20036;-43
2022/05/11 03:42:49;;;;;;;1.27;1.13;;;24.80;53.10;;;;;;5083126;28;20027;-43
2022/05/11 03:45:17;;;;;;;2.40;1.13;;;24.80;53.10;;;;;;5083140;28;20041;-43
2022/05/11 03:47:45;;;;;;;1.70;1.17;;;24.80;53.20;;;;;;5081002;28;20107;-43
2022/05/11 03:50:11;;;;;;;1.40;1.05;;;24.80;53.20;;;;;;5087284;28;20028;-43
2022/05/11 03:52:37;;;;;;;1.70;0.90;;;24.80;53.30;;;;;;5089509;28;20577;-43
2022/05/11 03:55:04;;;;;;;1.85;1.40;;;24.80;53.30;;;;;;5085824;28;20036;-42
2022/05/11 03:57:32;;;;;;;1.63;1.02;;;24.80;53.30;;;;;;5084872;28;20040;-43
2022/05/11 03:59:58;;;;;;;1.40;1.10;;;24.70;53.30;;;;;;5084777;28;20037;-42
2022/05/11 04:02:24;;;;;;;2.50;1.40;;;24.70;53.30;;;;;;5086178;28;20020;-43
2022/05/11 04:04:50;;;;;;;1.40;1.05;;;24.70;53.40;;;;;;5081039;28;20036;-43
2022/05/11 04:07:16;;;;;;;2.17;1.30;;;24.70;53.40;;;;;;5081213;28;20047;-43
2022/05/11 04:09:42;;;;;;;3.28;1.20;;;24.70;53.40;;;;;;5081135;28;20092;-43
2022/05/11 04:12:09;;;;;;;1.48;1.20;;;24.60;53.40;;;;;;5087233;28;20040;-43
2022/05/11 04:14:35;;;;;;;2.47;1.27;;;24.60;53.50;;;;;;5080238;28;20533;-42
2022/05/11 04:17:01;;;;;;;2.40;1.05;;;24.60;53.50;;;;;;5084002;28;20040;-43
2022/05/11 04:19:27;;;;;;;1.55;1.20;;;24.60;53.50;;;;;;5081195;28;20136;-42
2022/05/11 04:21:54;;;;;;;1.23;1.05;;;24.60;53.50;;;;;;5084935;28;20039;-43
2022/05/11 04:24:20;;;;;;;1.80;1.20;;;24.60;53.60;;;;;;5083130;28;20054;-43
2022/05/11 04:26:46;;;;;;;1.65;1.30;;;24.60;53.60;;;;;;5085099;28;20020;-43
2022/05/11 04:29:12;;;;;;;1.15;1.00;;;24.60;53.60;;;;;;5079338;28;20046;-43
2022/05/11 04:31:38;;;;;;;1.45;1.23;;;24.50;53.60;;;;;;5082645;28;21323;-43
2022/05/11 04:34:04;;;;;;;1.48;1.15;;;24.50;53.60;;;;;;5082693;28;20028;-43
2022/05/11 04:36:30;;;;;;;1.38;1.20;;;24.50;53.60;;;;;;5082164;28;20082;-43
2022/05/11 04:38:57;;;;;;;1.40;1.08;;;24.50;53.60;;;;;;5082677;28;20050;-44
2022/05/11 04:41:23;;;;;;;1.52;1.30;;;24.50;53.60;;;;;;5082943;28;20561;-43
2022/05/11 04:43:49;;;;;;;2.13;1.20;;;24.50;53.70;;;;;;5082151;28;20140;-44
2022/05/11 04:46:16;;;;;;;1.48;1.23;;;24.40;53.70;;;;;;5082907;28;20038;-46
2022/05/11 04:48:44;;;;;;;1.63;1.23;;;24.40;53.70;;;;;;5079457;28;20028;-43
2022/05/11 04:51:11;;;;;;;2.50;1.30;;;24.40;53.70;;;;;;5083477;28;20514;-44
2022/05/11 04:53:38;;;;;;;2.65;1.20;;;24.40;53.70;;;;;;5079740;28;20337;-44
2022/05/11 04:56:04;;;;;;;1.80;1.17;;;24.40;53.70;;;;;;5085107;28;20468;-44
2022/05/11 04:58:30;;;;;;;1.63;1.10;;;24.30;53.70;;;;;;5086615;28;20125;-44
2022/05/11 05:00:56;;;;;;;3.28;1.23;;;24.30;53.70;;;;;;5083161;28;20024;-44
2022/05/11 05:03:23;;;;;;;1.30;1.10;;;24.30;53.70;;;;;;5087734;28;20050;-44
2022/05/11 05:05:50;;;;;;;2.60;1.50;;;24.30;53.70;;;;;;5086248;28;20021;-44
2022/05/11 05:08:16;;;;;;;2.17;1.40;;;24.30;53.70;;;;;;5086647;28;20174;-44
2022/05/11 05:10:42;;;;;;;1.80;1.40;;;24.30;53.80;;;;;;5082858;28;21636;-44
2022/05/11 05:13:11;;;;;;;1.95;1.10;;;24.20;53.70;;;;;;5080589;28;20036;-44
2022/05/11 05:15:38;;;;;;;1.67;1.25;;;24.20;53.80;;;;;;5086061;28;20056;-44
2022/05/11 05:18:06;;;;;;;1.48;1.30;;;24.20;53.70;;;;;;5080569;28;20044;-44
2022/05/11 05:20:32;;;;;;;1.90;1.45;;;24.20;53.80;;;;;;5089118;28;20056;-44
2022/05/11 05:22:58;;;;;;;1.53;1.43;;;24.20;53.80;;;;;;5082661;28;20490;-43
2022/05/11 05:25:25;;;;;;;1.17;1.08;;;24.10;53.80;;;;;;5088166;28;20035;-43
2022/05/11 05:27:52;;;;;;;2.03;1.20;;;24.10;53.80;;;;;;5086582;28;20093;-43
2022/05/11 05:33:04;;;;;;;2.10;1.30;;;24.10;53.90;;;;;;5085338;28;20516;-44
2022/05/11 05:35:30;;;;;;;1.45;1.23;;;24.10;53.90;;;;;;5079621;28;20039;-44
2022/05/11 05:37:56;;;;;;;1.88;1.33;;;24.00;53.80;;;;;;5083373;28;20048;-44
2022/05/11 05:40:22;;;;;;;1.60;1.20;;;24.00;53.90;;;;;;5080314;28;20033;-44
2022/05/11 05:42:49;;;;;;;1.70;1.38;;;24.00;53.90;;;;;;5082328;28;20032;-44
2022/05/11 05:45:15;;;;;;;1.63;1.42;;;24.00;54.00;;;;;;5083124;28;20024;-44
2022/05/11 05:47:41;;;;;;;1.60;1.20;;;24.00;54.00;;;;;;5082196;28;20033;-44
2022/05/11 05:50:07;;;;;;;2.25;1.30;;;24.00;54.00;;;;;;5082026;28;20017;-44
2022/05/11 05:52:34;;;;;;;1.70;1.23;;;23.90;54.00;;;;;;5084179;28;20039;-43
2022/05/11 05:55:00;;;;;;;1.60;1.35;;;23.90;54.00;;;;;;5088049;28;20052;-43
2022/05/11 05:57:27;;;;;;;1.30;1.20;;;23.90;54.00;;;;;;5076580;28;20104;-43
2022/05/11 05:59:53;;;;;;;;;;;23.90;54.00;;;;;;5092663;28;20041;-44
2022/05/11 06:02:19;;;;;;;1.50;1.20;;;23.80;54.10;;;;;;5086523;28;19908;-44
2022/05/11 06:04:47;;;;;;;1.50;1.17;;;23.80;54.10;;;;;;5085741;28;20473;-44
2022/05/11 06:07:13;;;;;;;1.77;1.40;;;23.80;54.10;;;;;;5087615;28;20025;-45
2022/05/11 06:09:40;;;;;;;2.50;1.23;;;23.80;54.10;;;;;;5087877;28;20035;-44
2022/05/11 06:12:10;;;;;;;1.70;1.38;;;23.80;54.10;;;;;;5090019;28;20056;-43
2022/05/11 06:14:36;;;;;;;1.90;1.10;;;23.80;54.20;;;;;;5098222;28;20039;-44
2022/05/11 06:17:03;;;;;;;2.00;1.42;;;23.70;54.20;;;;;;5081061;28;20036;-44
2022/05/11 06:19:29;;;;;;;1.42;1.25;;;23.70;54.20;;;;;;5084621;28;20080;-44
2022/05/11 06:21:55;;;;;;;1.65;1.35;;;23.70;54.20;;;;;;5092092;28;20068;-44
2022/05/11 06:24:22;;;;;;;1.40;1.30;;;23.70;54.20;;;;;;5079008;28;20446;-44
2022/05/11 06:26:48;;;;;;;1.57;1.40;;;23.70;54.20;;;;;;5083353;28;20025;-43
2022/05/11 06:29:14;;;;;;;2.22;1.52;;;23.70;54.20;;;;;;5089852;28;20021;-44
2022/05/11 06:31:40;;;;;;;2.03;1.30;;;23.60;54.10;;;;;;5089882;28;20134;-43
2022/05/11 06:34:07;;;;;;;1.92;1.20;;;23.60;54.10;;;;;;5086983;28;20059;-43
2022/05/11 06:36:33;;;;;;;2.00;1.33;;;23.60;54.20;;;;;;5082923;28;20032;-43
2022/05/11 06:38:59;;;;;;;2.10;1.48;;;23.60;54.20;;;;;;5085050;28;20046;-44
2022/05/11 06:41:27;;;;;;;1.45;1.20;;;23.60;54.20;;;;;;5088137;28;20029;-43
2022/05/11 06:43:54;;;;;;;1.92;1.65;;;23.50;54.20;;;;;;5086878;28;20043;-44
2022/05/11 06:46:20;;;;;;;1.20;1.10;;;23.50;54.20;;;;;;5083966;28;20028;-44
2022/05/11 06:48:47;;;;;;;2.42;1.38;;;23.50;54.20;;;;;;5078937;28;20032;-44
2022/05/11 06:51:14;;;;;;;2.72;1.25;;;23.50;54.20;;;;;;5078233;28;20031;-44
2022/05/11 06:59:21;;;;;;;1.75;1.30;;;23.50;54.30;;;;;;5079027;28;20040;-44
2022/05/11 07:01:54;;;;;;;2.00;1.33;;;23.40;54.20;;;;;;5091212;28;20507;-43
2022/05/11 07:04:23;;;;;;;1.75;1.30;;;23.40;54.30;;;;;;5065161;28;20446;-45
2022/05/11 07:06:56;;;;;;;2.60;1.30;;;23.40;54.30;;;;;;5068965;28;20033;-43
2022/05/11 07:09:24;;;;;;;2.17;1.45;;;23.40;54.30;;;;;;5068931;28;20032;-45
2022/05/11 07:14:35;;;;;;;1.55;1.45;;;23.30;54.30;;;;;;5069622;28;20032;-44
2022/05/11 07:17:01;;;;;;;2.38;1.60;;;23.30;54.30;;;;;;5081274;28;20036;-44
2022/05/11 07:19:27;;;;;;;1.63;1.45;;;23.30;54.30;;;;;;5090295;28;20134;-44
2022/05/11 07:21:54;;;;;;;1.65;1.50;;;23.30;54.40;;;;;;5083429;28;20058;-43
2022/05/11 07:24:20;;;;;;;2.20;1.60;;;23.20;54.30;;;;;;5065301;28;20044;-44
2022/05/11 07:26:46;;;;;;;2.83;1.67;;;23.20;54.40;;;;;;5078742;28;20281;-44
2022/05/11 07:29:12;;;;;;;1.83;1.50;;;23.20;54.40;;;;;;5095400;28;20062;-44
2022/05/11 07:31:39;;;;;;;1.88;1.50;;;23.20;54.30;;;;;;5094289;28;20044;-44
2022/05/11 07:34:05;;;;;;;1.92;1.30;;;23.20;54.40;;;;;;5082955;28;20512;-44
2022/05/11 07:36:31;;;;;;;2.13;1.65;;;23.20;54.40;;;;;;5079553;28;20469;-43
2022/05/11 07:38:58;;;;;;;2.10;1.60;;;23.10;54.40;;;;;;5081784;28;20495;-44
2022/05/11 07:41:24;;;;;;;2.53;1.55;;;23.20;54.50;;;;;;5084487;28;20515;-44
2022/05/11 07:43:50;;;;;;;1.92;1.40;;;23.10;54.40;;;;;;5074604;28;20036;-44
2022/05/11 07:46:16;;;;;;;1.75;1.50;;;23.10;54.40;;;;;;5077243;28;20805;-43
2022/05/11 07:48:42;;;;;;;1.95;1.73;;;23.10;54.40;;;;;;5090280;28;20515;-43
2022/05/11 07:51:08;;;;;;;2.53;1.50;;;23.10;54.40;;;;;;5084251;28;20078;-42
2022/05/11 07:53:35;;;;;;;1.70;1.50;;;23.00;54.50;;;;;;5082464;28;20032;-44
2022/05/11 08:01:50;;;;;;;2.50;1.55;;;23.00;54.50;;;;;;5088091;28;20111;-44
2022/05/11 08:04:16;;;;;;;2.45;1.80;;;23.00;54.50;;;;;;5059982;28;20044;-41
2022/05/11 08:06:42;;;;;;;2.17;1.77;;;23.00;54.50;;;;;;5038447;28;20037;-44
2022/05/11 08:09:08;;;;;;;2.03;1.65;;;22.90;54.50;;;;;;5049470;28;20121;-44
2022/05/11 08:11:34;;;;;;;2.35;1.73;;;22.90;55.10;;;;;;5046810;28;20051;-44
2022/05/11 08:14:00;;;;;;;2.03;1.55;;;22.90;54.60;;;;;;5046830;28;20033;-44
2022/05/11 08:16:26;;;;;;;1.83;1.73;;;22.80;54.60;;;;;;5040112;28;20064;-44
2022/05/11 08:18:52;;;;;;;2.72;1.83;;;22.80;54.60;;;;;;5060234;28;20057;-44
2022/05/11 08:21:19;;;;;;;1.60;1.50;;;22.80;54.60;;;;;;5060785;28;20152;-43
2022/05/11 08:23:46;;;;;;;1.65;1.55;;;22.80;54.60;;;;;;5058231;28;20040;-44
2022/05/11 08:26:12;;;;;;;2.45;1.65;;;22.80;54.60;;;;;;5060340;28;20029;-44
2022/05/11 08:28:38;;;;;;;1.63;1.40;;;22.80;54.60;;;;;;5059108;28;20044;-44
2022/05/11 08:33:49;;;;;;;2.17;1.52;;;22.70;54.60;;;;;;5066589;28;20093;-44
2022/05/11 08:36:18;;;;;;;1.77;1.63;;;22.70;54.70;;;;;;5055047;28;20036;-43
2022/05/11 08:38:45;;;;;;;1.70;1.60;;;22.70;54.70;;;;;;5054327;28;20041;-44
2022/05/11 08:41:39;;;;;;;1.80;1.70;;;22.70;54.70;;;;;;5057231;28;20037;-44
2022/05/11 08:44:15;;;;;;;2.05;1.85;;;22.70;54.80;;;;;;5077884;28;20067;-43
2022/05/11 08:47:00;;;;;;;3.03;1.88;;;22.70;54.70;;;;;;5081969;28;20101;-43
2022/05/11 08:49:47;;;;;;;3.78;1.90;;;22.60;54.80;;;;;;5095929;28;20032;-43
2022/05/11 08:52:25;;;;;;;2.10;1.90;;;22.60;54.80;;;;;;5076392;28;20029;-44
2022/05/11 08:54:56;;;;;;;2.75;1.70;;;22.60;54.80;;;;;;5065002;28;20024;-43
2022/05/11 08:57:23;;;;;;;2.10;1.80;;;22.60;54.80;;;;;;5079997;28;20124;-43
2022/05/11 08:59:51;;;;;;;2.42;1.85;;;22.60;54.80;;;;;;5089609;28;20023;-44
2022/05/11 09:02:25;;;;;;;2.75;1.80;;;22.60;54.80;;;;;;5095958;28;20148;-44
2022/05/11 09:04:58;;;;;;;3.00;1.70;;;22.50;54.80;;;;;;5087112;28;20028;-44
2022/05/11 09:07:25;;;;;;;1.73;1.63;;;22.50;54.80;;;;;;5078510;28;20111;-44
2022/05/11 09:09:54;;;;;;;1.92;1.60;;;22.50;54.90;;;;;;5070267;28;20523;-44
2022/05/11 09:12:21;;;;;;;2.33;1.80;;;22.50;54.90;;;;;;5075623;28;20517;-44
2022/05/11 09:14:50;;;;;;;2.03;1.85;;;22.40;54.80;;;;;;5067939;28;20024;-42
2022/05/11 09:17:28;;;;;;;1.98;1.75;;;22.40;54.90;;;;;;5084286;28;20036;-42
2022/05/11 09:20:09;;;;;;;2.88;1.83;;;22.40;54.90;;;;;;5078041;28;20092;-42
2022/05/11 09:22:37;;;;;;;2.47;1.98;;;22.40;54.90;;;;;;5069389;28;20033;-42
2022/05/11 09:25:25;;;;;;;2.00;1.70;;;22.40;55.00;;;;;;5084035;28;20028;-41
2022/05/11 09:27:51;;;;;;;2.33;1.85;;;22.30;54.90;;;;;;5066189;28;20059;-42
2022/05/11 09:30:19;;;;;;;1.83;1.40;;;22.40;55.00;;;;;;5100967;28;20020;-43
2022/05/11 09:32:45;;;;;;;2.00;1.70;;;22.30;55.00;;;;;;5074164;28;20037;-42
2022/05/11 09:35:36;;;;;;;2.28;1.92;;;22.30;55.00;;;;;;5069093;28;20033;-42
2022/05/11 09:38:07;;;;;;;2.42;1.85;;;22.30;55.00;;;;;;5072165;28;20037;-43
2022/05/11 09:40:50;;;;;;;2.42;1.90;;;22.30;55.10;;;;;;5101547;28;20051;-42
2022/05/11 09:43:38;;;;;;;2.45;1.90;;;22.20;55.10;;;;;;5089031;28;20766;-43
2022/05/11 09:46:27;;;;;;;2.83;2.10;;;22.20;55.10;;;;;;5085508;28;20036;-47
2022/05/11 09:49:04;;;;;;;2.20;1.80;;;22.20;55.10;;;;;;5082404;28;20045;-43
2022/05/11 09:51:50;;;;;;;1.98;1.77;;;22.20;55.10;;;;;;5077312;28;20017;-44
2022/05/11 09:54:38;;;;;;;2.38;2.00;;;22.20;55.10;;;;;;5071925;28;20052;-43
2022/05/11 09:57:11;;;;;;;2.10;1.73;;;22.20;55.20;;;;;;5077245;28;20025;-42
2022/05/11 09:59:50;;;;;;;2.20;1.83;;;22.20;55.20;;;;;;5082824;28;20040;-42
2022/05/11 10:02:35;;;;;;;2.60;1.88;;;22.10;55.20;;;;;;5073993;28;20025;-43
2022/05/11 10:05:07;;;;;;;2.08;1.77;;;22.10;55.30;;;;;;5087511;28;20028;-43
2022/05/11 10:07:38;;;;;;;1.73;1.63;;;22.10;55.30;;;;;;5070237;28;20024;-43
2022/05/11 10:10:16;;;;;;;2.13;1.58;;;22.10;55.30;;;;;;5083198;28;20036;-43
2022/05/11 10:12:42;;;;;;;2.20;1.90;;;22.00;55.20;;;;;;5083840;28;20032;-42
2022/05/11 10:23:54;;;;;;;3.05;1.83;;;22.00;55.40;;;;;;5067325;28;20059;-43
2022/05/11 10:26:25;;;;;;;3.70;1.80;;;22.00;55.50;;;;;;5066230;28;20037;-36
2022/05/11 10:29:15;;;;;;;5.47;2.15;;;22.00;55.60;;;;;;5065697;28;20036;-36
2022/05/11 10:32:07;;;;;;;2.92;2.00;;;21.90;55.50;;;;;;5071789;28;20762;-35
2022/05/11 10:34:40;;;;;;;4.80;1.90;;;21.90;55.50;;;;;;5067600;28;20028;-34
2022/05/11 10:37:09;;;;;;;3.80;2.05;;;21.90;55.60;;;;;;5072831;28;20051;-36
2022/05/11 10:39:56;;;;;;;4.13;2.45;;;21.90;55.60;;;;;;5072323;28;20070;-35
2022/05/11 10:42:31;;;;;;;6.40;2.35;;;21.90;55.80;;;;;;5069103;28;20044;-36
2022/05/11 10:45:15;;;;;;;7.13;2.40;;;21.90;55.80;;;;;;5073988;28;20038;-37
2022/05/11 10:48:08;;;;;;;6.40;2.58;;;21.90;56.20;;;;;;5088531;28;20765;-33
2022/05/11 10:50:43;;;;;;;7.15;2.72;;;21.80;56.40;;;;;;5084228;28;20029;-33
2022/05/11 10:53:35;;;;;;;9.88;2.88;;;21.80;56.40;;;;;;5085126;28;20027;-33
2022/05/11 10:56:19;;;;;;;8.15;2.25;;;21.70;56.30;;;;;;5083196;28;20056;-33
2022/05/11 10:59:16;;;;;;;5.68;2.30;;;21.80;56.30;;;;;;5065011;28;20064;-33
2022/05/11 11:02:07;;;;;;;5.63;2.85;;;21.70;56.20;;;;;;5074364;28;20025;-33
2022/05/11 11:05:01;;;;;;;4.78;2.42;;;21.70;56.20;;;;;;5085019;28;20111;-33
2022/05/11 11:07:38;;;;;;;5.53;2.60;;;21.70;56.10;;;;;;5079528;28;20060;-35
2022/05/11 11:10:32;;;;;;;4.35;2.28;;;21.70;56.10;;;;;;5083398;28;20021;-34
2022/05/11 11:13:23;;;;;;;4.85;2.50;;;21.70;56.00;;;;;;5084948;28;20112;-33
2022/05/11 11:15:52;;;;;;;4.78;2.38;;;21.70;56.00;;;;;;5084781;28;20084;-33
2022/05/11 11:18:31;;;;;;;5.47;2.78;;;21.60;56.00;;;;;;5083486;28;20056;-33
2022/05/11 11:21:01;;;;;;;3.78;2.40;;;21.60;56.00;;;;;;5082980;28;20024;-33
2022/05/11 11:23:30;;;;;;;5.50;2.70;;;21.60;56.00;;;;;;5084645;28;20064;-33
2022/05/11 11:26:01;;;;;;;5.15;2.78;;;21.60;55.90;;;;;;5084462;28;20028;-33
2022/05/11 11:28:33;;;;;;;6.63;2.40;;;21.60;55.90;;;;;;5070955;28;20049;-33
2022/05/11 11:30:59;;;;;;;3.15;1.90;;;21.60;55.90;;;;;;5068935;28;20035;-33
2022/05/11 11:33:26;;;;;;;4.22;2.30;;;21.50;55.90;;;;;;5084689;28;20024;-33
2022/05/11 11:35:53;;;;;;;3.42;2.08;;;21.50;55.80;;;;;;5080763;28;20129;-33
2022/05/11 11:38:41;;;;;;;4.05;2.40;;;21.50;55.80;;;;;;5081528;28;20040;-33
2022/05/11 11:41:14;;;;;;;6.45;2.28;;;21.50;55.80;;;;;;5084010;28;20587;-33
2022/05/11 11:43:54;;;;;;;3.58;2.30;;;21.50;55.80;;;;;;5084558;28;20420;-33
2022/05/11 11:46:28;;;;;;;4.80;2.45;;;21.40;55.80;;;;;;5084222;28;20040;-33
2022/05/11 11:49:11;;;;;;;4.60;2.38;;;21.40;55.70;;;;;;5102625;28;20031;-33
2022/05/11 11:51:58;;;;;;;3.33;2.40;;;21.40;55.70;;;;;;5085757;28;20028;-33
2022/05/11 11:54:29;;;;;;;4.70;2.50;;;21.40;55.70;;;;;;5079231;28;20028;-33
2022/05/11 11:56:58;;;;;;;3.78;2.20;;;21.40;55.70;;;;;;5083491;28;20071;-33
2022/05/11 11:59:28;;;;;;;3.55;2.17;;;21.30;55.70;;;;;;5083916;28;20036;-33
2022/05/11 12:02:08;;;;;;;5.28;2.20;;;21.30;55.70;;;;;;5070102;28;20421;-33
2022/05/11 12:04:57;;;;;;;4.43;2.67;;;21.30;55.70;;;;;;5062697;28;20079;-33
2022/05/11 12:15:43;;;;;;;3.22;2.00;;;21.20;55.60;;;;;;5096536;28;20078;-33
2022/05/11 12:18:23;;;;;;;3.05;2.05;;;21.20;55.70;;;;;;5083017;28;20055;-33
2022/05/11 12:20:49;;;;;;;3.95;2.45;;;21.20;55.70;;;;;;5083752;28;20027;-33
2022/05/11 12:23:20;;;;;;;2.73;2.10;;;21.20;55.70;;;;;;5083499;28;20025;-33
2022/05/11 12:25:58;;;;;;;3.47;2.30;;;21.20;55.70;;;;;;5083161;28;20032;-33
2022/05/11 12:28:30;;;;;;;3.72;2.13;;;21.20;55.70;;;;;;5068813;28;20049;-33
2022/05/11 12:30:56;;;;;;;3.45;2.10;;;21.10;55.70;;;;;;5067902;28;20052;-33
2022/05/11 12:33:25;;;;;;;3.03;2.03;;;21.10;55.70;;;;;;5083095;28;20054;-33
2022/05/11 12:35:52;;;;;;;2.72;1.92;;;21.10;55.70;;;;;;5081070;28;20019;-33
2022/05/11 12:38:29;;;;;;;3.28;2.35;;;21.10;55.70;;;;;;5078376;28;20036;-33
2022/05/11 12:40:56;;;;;;;3.17;2.00;;;21.10;55.70;;;;;;5083453;28;20028;-33
2022/05/11 12:43:28;;;;;;;3.13;2.07;;;21.10;55.70;;;;;;5082900;28;20024;-33
2022/05/11 12:45:59;;;;;;;2.58;1.90;;;21.10;55.70;;;;;;5083029;28;20028;-33
2022/05/11 12:48:34;;;;;;;2.92;2.00;;;21.00;55.70;;;;;;5096625;28;20020;-33
2022/05/11 12:51:09;;;;;;;3.40;1.98;;;21.00;55.70;;;;;;5103580;28;20074;-33
2022/05/11 12:53:53;;;;;;;3.15;2.30;;;21.00;55.70;;;;;;5102838;28;20031;-33
2022/05/11 12:56:27;;;;;;;2.95;1.85;;;21.00;55.70;;;;;;5103457;28;20050;-33
2022/05/11 12:58:57;;;;;;;3.05;2.25;;;21.00;55.70;;;;;;5084939;28;20052;-33
2022/05/11 13:01:28;;;;;;;2.65;2.20;;;21.00;55.70;;;;;;5074710;28;20093;-33
2022/05/11 13:03:58;;;;;;;2.90;2.00;;;21.00;55.80;;;;;;5062958;28;20029;-33
2022/05/11 13:06:45;;;;;;;2.50;1.95;;;21.00;55.80;;;;;;5062799;28;20036;-34
2022/05/11 13:09:38;;;;;;;3.03;1.95;;;21.00;55.80;;;;;;5061448;28;20055;-33
2022/05/11 13:12:05;;;;;;;2.72;2.15;;;21.00;55.80;;;;;;5061414;28;20055;-34
2022/05/11 13:14:35;;;;;;;2.13;1.75;;;21.00;55.80;;;;;;5062639;28;20084;-34
2022/05/11 13:17:04;;;;;;;2.85;1.88;;;21.00;55.80;;;;;;5061388;28;20040;-33
2022/05/11 13:19:34;;;;;;;2.90;2.03;;;21.00;55.90;;;;;;5062518;28;20120;-33
2022/05/11 13:22:03;;;;;;;2.28;1.70;;;21.00;55.90;;;;;;5061045;28;20505;-34
2022/05/11 13:24:42;;;;;;;3.30;1.83;;;21.00;56.00;;;;;;5078084;28;20097;-33
2022/05/11 13:27:48;;;;;;;2.40;1.77;;;21.00;56.10;;;;;;5064364;28;20049;-33
2022/05/11 13:30:29;;;;;;;2.10;1.70;;;21.00;56.20;;;;;;5079048;28;20028;-34
2022/05/11 13:32:59;;;;;;;1.85;1.50;;;20.90;56.00;;;;;;5062653;28;20056;-33
2022/05/11 13:35:31;;;;;;;2.15;1.50;;;20.90;56.10;;;;;;5062549;28;20075;-34
2022/05/11 13:38:12;;;;;;;2.30;1.63;;;20.90;56.10;;;;;;5062470;28;20037;-33
2022/05/11 13:40:54;;;;;;;2.28;1.90;;;20.90;56.20;;;;;;5062466;28;20119;-33
2022/05/11 13:43:22;;;;;;;2.13;1.50;;;20.90;56.20;;;;;;5062410;28;20084;-33
2022/05/11 13:45:56;;;;;;;;;;;20.90;56.20;;;;;;5062471;28;20025;-33
2022/05/11 13:48:26;;;;;;;3.03;1.90;;;20.90;56.20;;;;;;5091184;28;19912;-33
2022/05/11 13:50:52;;;;;;;2.03;1.58;;;20.90;56.20;;;;;;5103008;28;20032;-33
2022/05/11 13:53:28;;;;;;;3.03;1.90;;;20.90;56.20;;;;;;5096842;28;20031;-33
2022/05/11 13:55:57;;;;;;;2.10;1.70;;;20.90;56.20;;;;;;5070660;28;20027;-33
2022/05/11 13:58:40;;;;;;;3.63;1.60;;;20.90;56.20;;;;;;5068818;28;20060;-33
2022/05/11 14:01:15;;;;;;;2.58;1.80;;;20.90;56.30;;;;;;5067984;28;20043;-34
2022/05/11 14:03:43;;;;;;;1.73;1.55;;;20.90;56.40;;;;;;5082177;28;20035;-34
2022/05/11 14:06:29;;;;;;;4.18;1.65;;;20.90;56.40;;;;;;5082135;28;20024;-33
2022/05/11 14:08:56;;;;;;;2.75;1.90;;;20.90;56.50;;;;;;5060744;28;20035;-33
2022/05/11 14:11:22;;;;;;;1.80;1.48;;;20.90;56.50;;;;;;5062356;28;20025;-34
2022/05/11 14:14:07;;;;;;;2.30;1.70;;;20.90;56.50;;;;;;5061922;28;20025;-33
2022/05/11 14:16:33;;;;;;;2.00;1.55;;;20.90;56.50;;;;;;5067762;28;20593;-34
2022/05/11 14:18:59;;;;;;;1.88;1.48;;;21.00;56.60;;;;;;5101438;28;20055;-34
2022/05/11 14:21:26;;;;;;;1.58;1.45;;;20.90;56.60;;;;;;5096832;28;20028;-33
2022/05/11 14:23:52;;;;;;;1.75;1.52;;;21.00;56.70;;;;;;5081678;28;20029;-33
2022/05/11 14:26:18;;;;;;;1.92;1.73;;;21.00;56.70;;;;;;5083876;28;20032;-33
2022/05/11 14:28:45;;;;;;;2.85;1.83;;;20.90;56.70;;;;;;5084951;28;20043;-33
2022/05/11 14:31:14;;;;;;;1.90;1.40;;;21.00;56.80;;;;;;5085688;28;20758;-33
2022/05/11 14:33:40;;;;;;;1.95;1.60;;;21.00;56.80;;;;;;5101402;28;20147;-33
2022/05/11 14:36:07;;;;;;;2.55;1.70;;;21.00;56.90;;;;;;5085430;28;20029;-33
2022/05/11 14:38:34;;;;;;;1.38;1.23;;;21.00;56.90;;;;;;5085646;28;20088;-33
2022/05/11 14:41:00;;;;;;;2.58;1.67;;;21.00;57.00;;;;;;5085311;28;20025;-34
2022/05/11 14:43:26;;;;;;;1.52;1.42;;;21.00;57.00;;;;;;5085369;28;20050;-33
2022/05/11 14:45:55;;;;;;;1.67;1.30;;;21.00;57.20;;;;;;5085124;28;20032;-33
2022/05/11 14:48:26;;;;;;;1.60;1.50;;;21.00;57.30;;;;;;5101163;28;20020;-33
2022/05/11 14:50:53;;;;;;;1.80;1.50;;;21.00;57.40;;;;;;5085200;28;20039;-33
2022/05/11 14:53:19;;;;;;;2.28;1.50;;;21.00;57.50;;;;;;5085184;28;20493;-33
2022/05/11 14:55:45;;;;;;;3.47;1.45;;;21.00;57.60;;;;;;5084985;28;20115;-34
2022/05/11 15:03:40;;;;;;;1.75;1.50;;;21.00;58.00;;;;;;5084570;28;20059;-33
2022/05/11 15:06:06;;;;;;;2.05;1.70;;;21.00;58.00;;;;;;5084956;28;20052;-33
2022/05/11 15:08:32;;;;;;;1.65;1.40;;;21.10;58.10;;;;;;5067970;28;20032;-34
2022/05/11 15:13:44;;;;;;;1.65;1.20;;;21.10;58.20;;;;;;5064687;28;20065;-33
2022/05/11 15:16:10;;;;;;;2.05;1.40;;;21.10;58.30;;;;;;5064573;28;20021;-33